sensor_id;sensor_type;location;lat;lon;timestamp;pressure;altitude;pressure_sealevel;temperature;humidity
71889;BME280;59762;49.998;14.858;2023-03-19T00:00:03;97269.91;;;5.44;58.62
71889;BME280;59762;49.998;14.858;2023-03-19T00:02:29;97272.16;;;5.49;58.34
71889;BME280;59762;49.998;14.858;2023-03-19T00:04:57;97281.94;;;5.48;57.97
71889;BME280;59762;49.998;14.858;2023-03-19T00:07:22;97271.22;;;5.50;58.37
71889;BME280;59762;49.998;14.858;2023-03-19T00:09:48;97279.97;;;5.50;58.42
71889;BME280;59762;49.998;14.858;2023-03-19T00:12:13;97267.84;;;5.48;58.48
71889;BME280;59762;49.998;14.858;2023-03-19T00:14:39;97272.56;;;5.44;58.37
71889;BME280;59762;49.998;14.858;2023-03-19T00:17:05;97276.88;;;5.45;58.44
71889;BME280;59762;49.998;14.858;2023-03-19T00:19:31;97280.75;;;5.41;58.92
71889;BME280;59762;49.998;14.858;2023-03-19T00:21:57;97276.69;;;5.37;59.38
71889;BME280;59762;49.998;14.858;2023-03-19T00:24:23;97283.94;;;5.35;59.25
71889;BME280;59762;49.998;14.858;2023-03-19T00:26:49;97282.31;;;5.23;60.62
71889;BME280;59762;49.998;14.858;2023-03-19T00:29:15;97279.91;;;5.20;60.74
71889;BME280;59762;49.998;14.858;2023-03-19T00:31:40;97271.28;;;5.18;61.00
71889;BME280;59762;49.998;14.858;2023-03-19T00:34:07;97277.56;;;5.17;60.53
71889;BME280;59762;49.998;14.858;2023-03-19T00:36:34;97278.16;;;5.10;60.83
71889;BME280;59762;49.998;14.858;2023-03-19T00:39:00;97271.53;;;5.15;60.09
71889;BME280;59762;49.998;14.858;2023-03-19T00:41:26;97279.47;;;5.15;60.01
71889;BME280;59762;49.998;14.858;2023-03-19T00:43:56;97272.06;;;5.09;60.12
71889;BME280;59762;49.998;14.858;2023-03-19T00:46:23;97282.78;;;5.08;60.07
71889;BME280;59762;49.998;14.858;2023-03-19T00:48:49;97278.69;;;5.04;60.40
71889;BME280;59762;49.998;14.858;2023-03-19T00:51:18;97274.31;;;5.14;59.38
71889;BME280;59762;49.998;14.858;2023-03-19T00:53:44;97285.28;;;5.09;59.71
71889;BME280;59762;49.998;14.858;2023-03-19T00:56:12;97289.84;;;5.07;59.81
71889;BME280;59762;49.998;14.858;2023-03-19T00:58:38;97287.38;;;5.06;59.65
71889;BME280;59762;49.998;14.858;2023-03-19T01:01:09;97284.66;;;5.17;58.93
71889;BME280;59762;49.998;14.858;2023-03-19T01:03:37;97274.94;;;5.06;59.27
71889;BME280;59762;49.998;14.858;2023-03-19T01:06:03;97280.81;;;5.10;59.01
71889;BME280;59762;49.998;14.858;2023-03-19T01:08:30;97280.00;;;5.09;59.47
71889;BME280;59762;49.998;14.858;2023-03-19T01:10:56;97282.78;;;5.08;59.07
71889;BME280;59762;49.998;14.858;2023-03-19T01:13:22;97274.94;;;5.06;59.06
71889;BME280;59762;49.998;14.858;2023-03-19T01:15:50;97281.09;;;5.07;58.79
71889;BME280;59762;49.998;14.858;2023-03-19T01:18:16;97279.22;;;4.98;59.57
71889;BME280;59762;49.998;14.858;2023-03-19T01:20:42;97280.50;;;5.03;58.55
71889;BME280;59762;49.998;14.858;2023-03-19T01:23:08;97283.78;;;4.96;59.27
71889;BME280;59762;49.998;14.858;2023-03-19T01:25:34;97278.03;;;4.91;59.54
71889;BME280;59762;49.998;14.858;2023-03-19T01:28:00;97286.09;;;4.89;59.26
71889;BME280;59762;49.998;14.858;2023-03-19T01:30:26;97284.19;;;4.91;59.13
71889;BME280;59762;49.998;14.858;2023-03-19T01:32:51;97280.56;;;4.92;58.53
71889;BME280;59762;49.998;14.858;2023-03-19T01:35:17;97282.13;;;4.84;59.38
71889;BME280;59762;49.998;14.858;2023-03-19T01:37:43;97280.22;;;4.86;58.74
71889;BME280;59762;49.998;14.858;2023-03-19T01:40:11;97274.09;;;4.85;58.34
71889;BME280;59762;49.998;14.858;2023-03-19T01:42:55;97268.34;;;5.01;57.46
71889;BME280;59762;49.998;14.858;2023-03-19T01:45:34;97273.31;;;4.94;57.81
71889;BME280;59762;49.998;14.858;2023-03-19T01:48:00;97268.75;;;4.96;57.52
71889;BME280;59762;49.998;14.858;2023-03-19T01:50:34;97267.34;;;4.92;56.82
71889;BME280;59762;49.998;14.858;2023-03-19T01:53:02;97267.53;;;5.00;56.56
71889;BME280;59762;49.998;14.858;2023-03-19T01:55:28;97269.00;;;4.93;56.78
71889;BME280;59762;49.998;14.858;2023-03-19T01:57:54;97274.50;;;5.01;56.87
71889;BME280;59762;49.998;14.858;2023-03-19T02:00:20;97271.78;;;4.92;56.96
71889;BME280;59762;49.998;14.858;2023-03-19T02:02:48;97265.56;;;4.82;57.41
71889;BME280;59762;49.998;14.858;2023-03-19T02:05:18;97262.25;;;4.69;57.48
71889;BME280;59762;49.998;14.858;2023-03-19T02:07:52;97261.69;;;4.65;57.15
71889;BME280;59762;49.998;14.858;2023-03-19T02:10:19;97265.91;;;4.57;58.43
71889;BME280;59762;49.998;14.858;2023-03-19T02:12:46;97256.88;;;4.59;59.24
71889;BME280;59762;49.998;14.858;2023-03-19T02:15:12;97263.00;;;4.60;57.70
71889;BME280;59762;49.998;14.858;2023-03-19T02:17:39;97272.13;;;4.67;57.73
71889;BME280;59762;49.998;14.858;2023-03-19T02:23:10;97272.41;;;4.53;58.17
71889;BME280;59762;49.998;14.858;2023-03-19T02:28:18;97270.16;;;4.48;58.20
71889;BME280;59762;49.998;14.858;2023-03-19T02:30:44;97258.63;;;4.38;58.71
71889;BME280;59762;49.998;14.858;2023-03-19T02:33:16;97261.53;;;4.24;59.43
71889;BME280;59762;49.998;14.858;2023-03-19T02:35:48;97261.75;;;4.32;58.59
71889;BME280;59762;49.998;14.858;2023-03-19T02:38:14;97258.06;;;4.24;61.27
71889;BME280;59762;49.998;14.858;2023-03-19T02:40:46;97276.47;;;4.03;61.08
71889;BME280;59762;49.998;14.858;2023-03-19T02:43:14;97277.56;;;4.12;59.74
71889;BME280;59762;49.998;14.858;2023-03-19T02:45:39;97292.78;;;4.30;58.43
71889;BME280;59762;49.998;14.858;2023-03-19T02:48:05;97300.13;;;4.16;61.32
71889;BME280;59762;49.998;14.858;2023-03-19T02:50:31;97295.53;;;4.18;59.14
71889;BME280;59762;49.998;14.858;2023-03-19T02:52:57;97291.94;;;4.19;58.07
71889;BME280;59762;49.998;14.858;2023-03-19T02:55:22;97290.88;;;4.21;58.15
71889;BME280;59762;49.998;14.858;2023-03-19T02:57:48;97289.44;;;4.06;61.66
71889;BME280;59762;49.998;14.858;2023-03-19T03:00:14;97288.72;;;3.93;60.09
71889;BME280;59762;49.998;14.858;2023-03-19T03:02:42;97285.38;;;3.91;60.54
71889;BME280;59762;49.998;14.858;2023-03-19T03:05:07;97294.97;;;3.92;60.20
71889;BME280;59762;49.998;14.858;2023-03-19T03:07:33;97296.06;;;3.90;59.86
71889;BME280;59762;49.998;14.858;2023-03-19T03:09:59;97296.28;;;3.87;62.13
71889;BME280;59762;49.998;14.858;2023-03-19T03:12:25;97292.44;;;3.80;60.04
71889;BME280;59762;49.998;14.858;2023-03-19T03:14:51;97297.13;;;4.09;59.70
71889;BME280;59762;49.998;14.858;2023-03-19T03:17:17;97290.63;;;4.02;60.59
71889;BME280;59762;49.998;14.858;2023-03-19T03:19:43;97291.72;;;3.78;61.92
71889;BME280;59762;49.998;14.858;2023-03-19T03:22:09;97284.06;;;3.64;62.98
71889;BME280;59762;49.998;14.858;2023-03-19T03:24:35;97291.38;;;3.71;61.03
71889;BME280;59762;49.998;14.858;2023-03-19T03:27:01;97283.34;;;3.73;60.79
71889;BME280;59762;49.998;14.858;2023-03-19T03:29:26;97276.22;;;3.73;61.23
71889;BME280;59762;49.998;14.858;2023-03-19T03:31:52;97280.56;;;3.63;62.40
71889;BME280;59762;49.998;14.858;2023-03-19T03:34:18;97285.59;;;3.44;65.28
71889;BME280;59762;49.998;14.858;2023-03-19T03:36:44;97293.41;;;3.46;63.39
71889;BME280;59762;49.998;14.858;2023-03-19T03:39:11;97287.84;;;3.49;64.53
71889;BME280;59762;49.998;14.858;2023-03-19T03:41:38;97283.06;;;3.54;64.07
71889;BME280;59762;49.998;14.858;2023-03-19T03:44:04;97283.09;;;3.76;60.39
71889;BME280;59762;49.998;14.858;2023-03-19T03:46:30;97298.44;;;3.71;61.43
71889;BME280;59762;49.998;14.858;2023-03-19T03:48:55;97302.16;;;3.68;60.89
71889;BME280;59762;49.998;14.858;2023-03-19T03:51:21;97310.09;;;3.57;61.79
71889;BME280;59762;49.998;14.858;2023-03-19T03:53:47;97303.69;;;3.49;62.03
71889;BME280;59762;49.998;14.858;2023-03-19T03:56:13;97298.78;;;3.44;62.20
71889;BME280;59762;49.998;14.858;2023-03-19T03:58:38;97297.84;;;3.56;63.61
71889;BME280;59762;49.998;14.858;2023-03-19T04:01:04;97296.84;;;3.46;63.44
71889;BME280;59762;49.998;14.858;2023-03-19T04:03:31;97287.75;;;3.50;62.41
71889;BME280;59762;49.998;14.858;2023-03-19T04:05:57;97289.69;;;3.48;63.61
71889;BME280;59762;49.998;14.858;2023-03-19T04:08:22;97299.28;;;3.49;61.67
71889;BME280;59762;49.998;14.858;2023-03-19T04:10:49;97300.94;;;3.50;61.67
71889;BME280;59762;49.998;14.858;2023-03-19T04:13:14;97297.81;;;3.45;61.45
71889;BME280;59762;49.998;14.858;2023-03-19T04:15:41;97294.81;;;3.39;62.37
71889;BME280;59762;49.998;14.858;2023-03-19T04:18:07;97300.34;;;3.47;61.29
71889;BME280;59762;49.998;14.858;2023-03-19T04:20:33;97311.50;;;3.39;63.47
71889;BME280;59762;49.998;14.858;2023-03-19T04:22:59;97305.09;;;2.85;65.90
71889;BME280;59762;49.998;14.858;2023-03-19T04:25:24;97308.03;;;2.70;68.47
71889;BME280;59762;49.998;14.858;2023-03-19T04:27:50;97303.28;;;3.09;66.24
71889;BME280;59762;49.998;14.858;2023-03-19T04:30:17;97301.06;;;2.92;66.65
71889;BME280;59762;49.998;14.858;2023-03-19T04:32:43;97305.53;;;3.03;65.86
71889;BME280;59762;49.998;14.858;2023-03-19T04:35:09;97311.19;;;3.20;64.79
71889;BME280;59762;49.998;14.858;2023-03-19T04:37:34;97306.03;;;3.19;63.47
71889;BME280;59762;49.998;14.858;2023-03-19T04:40:00;97311.56;;;3.16;63.98
71889;BME280;59762;49.998;14.858;2023-03-19T04:42:26;97314.00;;;3.30;64.49
71889;BME280;59762;49.998;14.858;2023-03-19T04:44:52;97315.69;;;3.53;61.51
71889;BME280;59762;49.998;14.858;2023-03-19T04:47:17;97318.56;;;3.39;64.01
71889;BME280;59762;49.998;14.858;2023-03-19T04:49:43;97310.59;;;3.28;63.71
71889;BME280;59762;49.998;14.858;2023-03-19T04:52:09;97312.91;;;3.32;62.20
71889;BME280;59762;49.998;14.858;2023-03-19T04:54:35;97315.06;;;3.27;63.35
71889;BME280;59762;49.998;14.858;2023-03-19T04:57:00;97315.56;;;3.32;62.50
71889;BME280;59762;49.998;14.858;2023-03-19T04:59:26;97320.59;;;3.01;65.92
71889;BME280;59762;49.998;14.858;2023-03-19T05:01:52;97324.22;;;3.00;67.39
71889;BME280;59762;49.998;14.858;2023-03-19T05:04:18;97319.91;;;2.99;66.31
71889;BME280;59762;49.998;14.858;2023-03-19T05:06:43;97309.63;;;3.07;64.29
71889;BME280;59762;49.998;14.858;2023-03-19T05:09:09;97304.06;;;2.99;66.48
71889;BME280;59762;49.998;14.858;2023-03-19T05:11:35;97308.50;;;2.98;65.14
71889;BME280;59762;49.998;14.858;2023-03-19T05:14:01;97309.47;;;3.08;65.37
71889;BME280;59762;49.998;14.858;2023-03-19T05:16:26;97308.81;;;3.17;64.10
71889;BME280;59762;49.998;14.858;2023-03-19T05:18:52;97320.72;;;3.34;63.08
71889;BME280;59762;49.998;14.858;2023-03-19T05:21:17;97311.72;;;3.36;63.26
71889;BME280;59762;49.998;14.858;2023-03-19T05:23:43;97323.59;;;3.31;63.60
71889;BME280;59762;49.998;14.858;2023-03-19T05:26:09;97318.09;;;3.34;63.96
71889;BME280;59762;49.998;14.858;2023-03-19T05:28:36;97319.03;;;3.33;63.63
71889;BME280;59762;49.998;14.858;2023-03-19T05:31:03;97314.47;;;3.35;63.54
71889;BME280;59762;49.998;14.858;2023-03-19T05:33:29;97314.97;;;3.40;63.88
71889;BME280;59762;49.998;14.858;2023-03-19T05:35:55;97314.50;;;3.46;65.76
71889;BME280;59762;49.998;14.858;2023-03-19T05:38:21;97314.50;;;3.57;62.17
71889;BME280;59762;49.998;14.858;2023-03-19T05:40:47;97318.72;;;3.59;62.09
71889;BME280;59762;49.998;14.858;2023-03-19T05:43:13;97320.38;;;3.60;62.36
71889;BME280;59762;49.998;14.858;2023-03-19T05:45:38;97320.63;;;3.68;62.35
71889;BME280;59762;49.998;14.858;2023-03-19T05:48:05;97326.06;;;3.78;61.59
71889;BME280;59762;49.998;14.858;2023-03-19T05:50:31;97324.13;;;3.69;62.44
71889;BME280;59762;49.998;14.858;2023-03-19T05:52:58;97332.16;;;3.67;63.64
71889;BME280;59762;49.998;14.858;2023-03-19T05:55:24;97331.13;;;3.81;64.05
71889;BME280;59762;49.998;14.858;2023-03-19T05:57:50;97332.53;;;3.96;61.85
71889;BME280;59762;49.998;14.858;2023-03-19T06:00:16;97328.94;;;3.86;61.78
71889;BME280;59762;49.998;14.858;2023-03-19T06:02:43;97339.38;;;3.98;62.36
71889;BME280;59762;49.998;14.858;2023-03-19T06:05:09;97349.84;;;4.11;62.96
71889;BME280;59762;49.998;14.858;2023-03-19T06:07:35;97355.25;;;4.20;60.79
71889;BME280;59762;49.998;14.858;2023-03-19T06:10:01;97354.88;;;4.25;61.64
71889;BME280;59762;49.998;14.858;2023-03-19T06:12:27;97351.63;;;4.43;61.78
71889;BME280;59762;49.998;14.858;2023-03-19T06:14:53;97342.97;;;4.41;59.95
71889;BME280;59762;49.998;14.858;2023-03-19T06:17:19;97350.31;;;4.27;61.46
71889;BME280;59762;49.998;14.858;2023-03-19T06:19:44;97346.00;;;4.26;60.83
71889;BME280;59762;49.998;14.858;2023-03-19T06:22:10;97350.31;;;4.27;63.76
71889;BME280;59762;49.998;14.858;2023-03-19T06:24:36;97353.19;;;4.35;63.99
71889;BME280;59762;49.998;14.858;2023-03-19T06:27:02;97344.13;;;4.59;61.76
71889;BME280;59762;49.998;14.858;2023-03-19T06:29:27;97344.75;;;4.63;62.78
71889;BME280;59762;49.998;14.858;2023-03-19T06:31:53;97344.69;;;4.74;62.57
71889;BME280;59762;49.998;14.858;2023-03-19T06:34:19;97357.28;;;4.92;61.25
71889;BME280;59762;49.998;14.858;2023-03-19T06:36:45;97363.78;;;4.88;61.15
71889;BME280;59762;49.998;14.858;2023-03-19T06:39:11;97371.66;;;5.10;60.41
71889;BME280;59762;49.998;14.858;2023-03-19T06:41:37;97355.88;;;5.09;61.42
71889;BME280;59762;49.998;14.858;2023-03-19T06:44:03;97353.69;;;5.14;60.29
71889;BME280;59762;49.998;14.858;2023-03-19T06:46:28;97358.50;;;5.20;61.04
71889;BME280;59762;49.998;14.858;2023-03-19T06:48:56;97354.66;;;5.24;61.07
71889;BME280;59762;49.998;14.858;2023-03-19T06:51:22;97365.16;;;5.35;59.72
71889;BME280;59762;49.998;14.858;2023-03-19T06:53:48;97362.28;;;5.38;59.55
71889;BME280;59762;49.998;14.858;2023-03-19T06:56:14;97368.88;;;5.43;61.31
71889;BME280;59762;49.998;14.858;2023-03-19T06:58:39;97370.22;;;5.38;60.15
71889;BME280;59762;49.998;14.858;2023-03-19T07:01:05;97367.91;;;5.44;59.25
71889;BME280;59762;49.998;14.858;2023-03-19T07:03:31;97360.06;;;5.63;59.89
71889;BME280;59762;49.998;14.858;2023-03-19T07:05:57;97355.81;;;5.72;60.43
71889;BME280;59762;49.998;14.858;2023-03-19T07:08:23;97335.91;;;5.77;59.00
71889;BME280;59762;49.998;14.858;2023-03-19T07:10:52;97344.00;;;5.76;60.39
71889;BME280;59762;49.998;14.858;2023-03-19T07:13:17;97358.28;;;5.84;58.60
71889;BME280;59762;49.998;14.858;2023-03-19T07:15:43;97372.16;;;5.97;60.00
71889;BME280;59762;49.998;14.858;2023-03-19T07:18:09;97381.72;;;6.09;59.71
71889;BME280;59762;49.998;14.858;2023-03-19T07:20:35;97378.34;;;6.07;59.55
71889;BME280;59762;49.998;14.858;2023-03-19T07:23:00;97381.41;;;6.03;59.97
71889;BME280;59762;49.998;14.858;2023-03-19T07:25:26;97382.22;;;5.94;59.75
71889;BME280;59762;49.998;14.858;2023-03-19T07:27:51;97393.94;;;6.01;60.66
71889;BME280;59762;49.998;14.858;2023-03-19T07:30:17;97382.91;;;5.96;60.48
71889;BME280;59762;49.998;14.858;2023-03-19T07:32:43;97384.00;;;5.93;60.02
71889;BME280;59762;49.998;14.858;2023-03-19T07:35:09;97381.91;;;5.97;60.27
71889;BME280;59762;49.998;14.858;2023-03-19T07:37:35;97393.00;;;6.02;59.84
71889;BME280;59762;49.998;14.858;2023-03-19T07:40:01;97387.38;;;5.95;60.09
71889;BME280;59762;49.998;14.858;2023-03-19T07:42:26;97389.19;;;5.95;60.80
71889;BME280;59762;49.998;14.858;2023-03-19T07:44:52;97385.03;;;6.02;60.46
71889;BME280;59762;49.998;14.858;2023-03-19T07:47:18;97402.97;;;5.89;60.64
71889;BME280;59762;49.998;14.858;2023-03-19T07:49:44;97407.78;;;6.04;61.12
71889;BME280;59762;49.998;14.858;2023-03-19T07:52:09;97412.34;;;6.23;60.34
71889;BME280;59762;49.998;14.858;2023-03-19T07:54:35;97401.03;;;6.21;60.67
71889;BME280;59762;49.998;14.858;2023-03-19T07:57:01;97395.44;;;6.44;59.89
71889;BME280;59762;49.998;14.858;2023-03-19T07:59:27;97389.97;;;6.85;58.47
71889;BME280;59762;49.998;14.858;2023-03-19T08:01:52;97385.44;;;7.35;57.22
71889;BME280;59762;49.998;14.858;2023-03-19T08:04:18;97392.69;;;7.80;55.62
71889;BME280;59762;49.998;14.858;2023-03-19T08:06:44;97396.28;;;8.18;54.22
71889;BME280;59762;49.998;14.858;2023-03-19T08:09:09;97399.75;;;8.37;53.49
71889;BME280;59762;49.998;14.858;2023-03-19T08:11:35;97408.16;;;8.33;53.37
71889;BME280;59762;49.998;14.858;2023-03-19T08:14:01;97401.44;;;8.92;52.32
71889;BME280;59762;49.998;14.858;2023-03-19T08:16:27;97404.81;;;8.94;51.61
71889;BME280;59762;49.998;14.858;2023-03-19T08:18:53;97413.59;;;8.77;52.60
71889;BME280;59762;49.998;14.858;2023-03-19T08:21:19;97416.38;;;8.76;51.29
71889;BME280;59762;49.998;14.858;2023-03-19T08:23:44;97411.00;;;8.95;51.07
71889;BME280;59762;49.998;14.858;2023-03-19T08:26:10;97411.28;;;8.92;52.17
71889;BME280;59762;49.998;14.858;2023-03-19T08:28:36;97417.19;;;9.13;51.41
71889;BME280;59762;49.998;14.858;2023-03-19T08:31:10;97410.13;;;8.94;51.04
71889;BME280;59762;49.998;14.858;2023-03-19T08:33:37;97401.94;;;9.05;50.46
71889;BME280;59762;49.998;14.858;2023-03-19T08:36:10;97402.31;;;9.37;49.69
71889;BME280;59762;49.998;14.858;2023-03-19T08:38:36;97403.03;;;9.12;51.42
71889;BME280;59762;49.998;14.858;2023-03-19T08:41:04;97394.06;;;9.48;49.55
71889;BME280;59762;49.998;14.858;2023-03-19T08:43:31;97393.84;;;9.59;49.85
71889;BME280;59762;49.998;14.858;2023-03-19T08:45:58;97408.38;;;9.30;49.32
71889;BME280;59762;49.998;14.858;2023-03-19T08:48:24;97406.63;;;9.38;49.05
71889;BME280;59762;49.998;14.858;2023-03-19T08:50:52;97407.78;;;9.36;49.03
71889;BME280;59762;49.998;14.858;2023-03-19T08:53:19;97406.88;;;9.45;48.81
71889;BME280;59762;49.998;14.858;2023-03-19T08:55:52;97406.31;;;9.94;48.16
71889;BME280;59762;49.998;14.858;2023-03-19T08:58:19;97404.25;;;9.70;49.24
71889;BME280;59762;49.998;14.858;2023-03-19T09:00:45;97404.72;;;9.48;49.84
71889;BME280;59762;49.998;14.858;2023-03-19T09:03:11;97405.34;;;9.95;48.91
71889;BME280;59762;49.998;14.858;2023-03-19T09:05:37;97405.56;;;9.84;49.33
71889;BME280;59762;49.998;14.858;2023-03-19T09:08:03;97405.16;;;9.96;48.75
71889;BME280;59762;49.998;14.858;2023-03-19T09:10:29;97405.41;;;9.85;48.80
71889;BME280;59762;49.998;14.858;2023-03-19T09:12:54;97403.53;;;9.78;49.59
71889;BME280;59762;49.998;14.858;2023-03-19T09:15:21;97399.56;;;9.82;49.12
71889;BME280;59762;49.998;14.858;2023-03-19T09:17:47;97396.63;;;9.93;48.40
71889;BME280;59762;49.998;14.858;2023-03-19T09:20:13;97388.03;;;9.99;49.33
71889;BME280;59762;49.998;14.858;2023-03-19T09:22:39;97394.22;;;9.82;47.44
71889;BME280;59762;49.998;14.858;2023-03-19T09:25:05;97400.72;;;9.79;49.28
71889;BME280;59762;49.998;14.858;2023-03-19T09:27:31;97396.56;;;10.02;49.63
71889;BME280;59762;49.998;14.858;2023-03-19T09:29:57;97389.69;;;10.17;49.18
71889;BME280;59762;49.998;14.858;2023-03-19T09:32:22;97392.19;;;10.44;47.90
71889;BME280;59762;49.998;14.858;2023-03-19T09:34:48;97389.50;;;10.36;47.22
71889;BME280;59762;49.998;14.858;2023-03-19T09:37:14;97382.97;;;10.13;48.32
71889;BME280;59762;49.998;14.858;2023-03-19T09:39:40;97383.03;;;10.21;48.79
71889;BME280;59762;49.998;14.858;2023-03-19T09:42:23;97384.81;;;10.38;48.34
71889;BME280;59762;49.998;14.858;2023-03-19T09:44:53;97392.97;;;10.37;48.75
71889;BME280;59762;49.998;14.858;2023-03-19T09:47:24;97389.91;;;10.83;46.88
71889;BME280;59762;49.998;14.858;2023-03-19T09:49:53;97398.63;;;10.93;46.63
71889;BME280;59762;49.998;14.858;2023-03-19T09:57:40;97394.34;;;11.08;44.70
71889;BME280;59762;49.998;14.858;2023-03-19T10:02:43;97391.00;;;11.71;44.73
71889;BME280;59762;49.998;14.858;2023-03-19T10:05:23;97396.00;;;11.74;43.39
71889;BME280;59762;49.998;14.858;2023-03-19T10:08:09;97396.00;;;11.74;45.00
71889;BME280;59762;49.998;14.858;2023-03-19T10:16:05;97389.25;;;11.46;47.07
71889;BME280;59762;49.998;14.858;2023-03-19T10:18:36;97399.56;;;11.91;45.97
71889;BME280;59762;49.998;14.858;2023-03-19T10:21:25;97399.81;;;11.56;45.91
71889;BME280;59762;49.998;14.858;2023-03-19T10:24:19;97386.56;;;11.38;46.57
71889;BME280;59762;49.998;14.858;2023-03-19T10:26:43;97385.16;;;11.84;46.18
71889;BME280;59762;49.998;14.858;2023-03-19T10:29:19;97399.28;;;11.52;45.58
71889;BME280;59762;49.998;14.858;2023-03-19T10:34:50;97392.38;;;11.83;47.73
71889;BME280;59762;49.998;14.858;2023-03-19T10:37:28;97396.00;;;11.74;46.82
71889;BME280;59762;49.998;14.858;2023-03-19T10:39:56;97397.88;;;11.82;48.16
71889;BME280;59762;49.998;14.858;2023-03-19T10:45:28;97383.47;;;11.67;46.50
71889;BME280;59762;49.998;14.858;2023-03-19T10:47:56;97378.06;;;11.59;46.03
71889;BME280;59762;49.998;14.858;2023-03-19T10:50:36;97376.28;;;11.67;47.85
71889;BME280;59762;49.998;14.858;2023-03-19T10:55:37;97388.66;;;12.24;46.92
71889;BME280;59762;49.998;14.858;2023-03-19T10:58:21;97388.66;;;12.16;45.65
71889;BME280;59762;49.998;14.858;2023-03-19T11:00:49;97380.47;;;11.94;46.14
71889;BME280;59762;49.998;14.858;2023-03-19T11:08:58;97364.44;;;11.86;47.59
71889;BME280;59762;49.998;14.858;2023-03-19T11:11:26;97372.94;;;12.13;46.41
71889;BME280;59762;49.998;14.858;2023-03-19T11:13:57;97367.59;;;12.05;47.63
71889;BME280;59762;49.998;14.858;2023-03-19T11:16:23;97364.53;;;11.36;48.03
71889;BME280;59762;49.998;14.858;2023-03-19T11:18:49;97364.94;;;11.89;47.38
71889;BME280;59762;49.998;14.858;2023-03-19T11:23:52;97367.09;;;12.02;48.83
71889;BME280;59762;49.998;14.858;2023-03-19T11:26:19;97362.59;;;12.10;46.77
71889;BME280;59762;49.998;14.858;2023-03-19T11:28:50;97353.06;;;11.92;48.03
71889;BME280;59762;49.998;14.858;2023-03-19T11:42:20;97350.69;;;11.81;48.83
71889;BME280;59762;49.998;14.858;2023-03-19T11:45:01;97347.44;;;12.49;45.89
71889;BME280;59762;49.998;14.858;2023-03-19T11:56:08;97357.53;;;12.31;45.54
71889;BME280;59762;49.998;14.858;2023-03-19T12:01:56;97337.69;;;12.64;45.82
71889;BME280;59762;49.998;14.858;2023-03-19T12:10:14;97331.00;;;12.52;47.04
71889;BME280;59762;49.998;14.858;2023-03-19T12:16:04;97342.78;;;12.90;47.17
71889;BME280;59762;49.998;14.858;2023-03-19T12:26:16;97324.94;;;13.13;46.29
71889;BME280;59762;49.998;14.858;2023-03-19T12:29:01;97328.41;;;12.83;44.72
71889;BME280;59762;49.998;14.858;2023-03-19T12:36:49;97314.72;;;13.61;44.12
71889;BME280;59762;49.998;14.858;2023-03-19T12:39:21;97312.34;;;13.44;44.60
71889;BME280;59762;49.998;14.858;2023-03-19T12:41:50;97307.91;;;13.28;44.60
71889;BME280;59762;49.998;14.858;2023-03-19T12:44:34;97308.34;;;13.62;44.65
71889;BME280;59762;49.998;14.858;2023-03-19T12:47:08;97306.56;;;13.55;44.42
71889;BME280;59762;49.998;14.858;2023-03-19T12:49:47;97305.50;;;13.78;43.29
71889;BME280;59762;49.998;14.858;2023-03-19T12:52:36;97306.06;;;13.74;43.35
71889;BME280;59762;49.998;14.858;2023-03-19T12:55:04;97305.41;;;13.72;44.54
71889;BME280;59762;49.998;14.858;2023-03-19T13:03:12;97313.75;;;13.54;44.83
71889;BME280;59762;49.998;14.858;2023-03-19T13:08:58;97308.25;;;13.25;44.73
71889;BME280;59762;49.998;14.858;2023-03-19T13:11:43;97306.31;;;13.42;46.24
71889;BME280;59762;49.998;14.858;2023-03-19T13:14:17;97308.25;;;13.03;45.19
71889;BME280;59762;49.998;14.858;2023-03-19T13:19:27;97308.91;;;13.05;45.59
71889;BME280;59762;49.998;14.858;2023-03-19T13:21:58;97308.13;;;13.19;45.14
71889;BME280;59762;49.998;14.858;2023-03-19T13:24:29;97314.41;;;13.56;44.71
71889;BME280;59762;49.998;14.858;2023-03-19T13:26:57;97312.69;;;13.18;45.61
71889;BME280;59762;49.998;14.858;2023-03-19T13:29:28;97311.44;;;13.51;44.27
71889;BME280;59762;49.998;14.858;2023-03-19T13:32:03;97312.16;;;13.45;45.17
71889;BME280;59762;49.998;14.858;2023-03-19T13:34:32;97316.31;;;13.48;45.06
71889;BME280;59762;49.998;14.858;2023-03-19T13:39:29;97311.59;;;13.72;45.37
71889;BME280;59762;49.998;14.858;2023-03-19T13:47:37;97321.53;;;13.49;44.75
71889;BME280;59762;49.998;14.858;2023-03-19T13:55:28;97312.91;;;13.54;45.05
71889;BME280;59762;49.998;14.858;2023-03-19T13:58:05;97313.41;;;13.35;46.41
71889;BME280;59762;49.998;14.858;2023-03-19T14:03:31;97316.75;;;13.59;44.84
71889;BME280;59762;49.998;14.858;2023-03-19T14:05:58;97305.94;;;13.22;45.77
71889;BME280;59762;49.998;14.858;2023-03-19T14:08:28;97309.66;;;13.66;45.71
71889;BME280;59762;49.998;14.858;2023-03-19T14:10:57;97313.47;;;13.49;44.91
71889;BME280;59762;49.998;14.858;2023-03-19T14:13:41;97302.56;;;13.28;46.66
71889;BME280;59762;49.998;14.858;2023-03-19T14:16:21;97306.34;;;13.56;45.88
71889;BME280;59762;49.998;14.858;2023-03-19T14:18:49;97297.84;;;13.30;46.02
71889;BME280;59762;49.998;14.858;2023-03-19T14:21:29;97298.91;;;13.21;46.06
71889;BME280;59762;49.998;14.858;2023-03-19T14:24:20;97298.88;;;13.52;45.83
71889;BME280;59762;49.998;14.858;2023-03-19T14:26:46;97299.03;;;13.50;46.55
71889;BME280;59762;49.998;14.858;2023-03-19T14:29:15;97301.34;;;13.31;45.72
71889;BME280;59762;49.998;14.858;2023-03-19T14:31:47;97296.84;;;13.01;47.12
71889;BME280;59762;49.998;14.858;2023-03-19T14:37:22;97296.16;;;12.68;47.02
71889;BME280;59762;49.998;14.858;2023-03-19T14:40:23;97294.72;;;12.88;48.02
71889;BME280;59762;49.998;14.858;2023-03-19T14:43:56;97297.59;;;13.17;47.19
71889;BME280;59762;49.998;14.858;2023-03-19T14:46:00;97298.34;;;13.03;47.59
71889;BME280;59762;49.998;14.858;2023-03-19T14:48:42;97310.16;;;13.17;46.87
71889;BME280;59762;49.998;14.858;2023-03-19T14:54:29;97308.56;;;13.08;46.79
71889;BME280;59762;49.998;14.858;2023-03-19T14:56:56;97308.13;;;12.88;46.36